createdAt,value
2018-07-02T00:00:12.359Z,18.55
2018-07-02T00:02:41.035Z,18.42
2018-07-02T00:05:09.960Z,18.34
2018-07-02T00:07:38.660Z,18.25
2018-07-02T00:10:09.285Z,18.31
2018-07-02T00:12:37.876Z,18.28
2018-07-02T00:15:06.872Z,18.25
2018-07-02T00:17:35.567Z,18.23
2018-07-02T00:20:04.993Z,18.13
2018-07-02T00:22:33.610Z,18.11
2018-07-02T00:25:02.148Z,18.05
2018-07-02T00:27:30.787Z,18.09
2018-07-02T00:29:59.384Z,18.04
2018-07-02T00:32:28.444Z,18.03
2018-07-02T00:34:57.048Z,17.99
2018-07-02T00:37:25.648Z,18.05
2018-07-02T00:39:54.272Z,18.02
2018-07-02T00:42:22.854Z,17.92
2018-07-02T00:44:51.914Z,17.90
2018-07-02T00:47:20.564Z,17.92
2018-07-02T00:49:49.245Z,17.88
2018-07-02T00:52:17.811Z,17.85
2018-07-02T00:54:46.436Z,17.75
2018-07-02T00:57:15.073Z,17.72
2018-07-02T00:59:43.656Z,17.69
2018-07-02T01:02:12.459Z,17.65
2018-07-02T01:04:41.032Z,17.57
2018-07-02T01:07:09.928Z,17.62
2018-07-02T01:09:38.588Z,17.58
2018-07-02T01:12:07.466Z,17.60
2018-07-02T01:14:36.075Z,17.55
2018-07-02T01:17:04.735Z,17.55
2018-07-02T01:19:33.472Z,17.47
2018-07-02T01:22:02.104Z,17.41
2018-07-02T01:24:30.734Z,17.35
2018-07-02T01:26:59.353Z,17.33
2018-07-02T01:29:27.920Z,17.35
2018-07-02T01:31:56.540Z,17.30
2018-07-02T01:34:25.151Z,17.28
2018-07-02T01:36:53.828Z,17.23
2018-07-02T01:39:22.506Z,17.20
2018-07-02T01:41:51.364Z,17.21
2018-07-02T01:44:20.032Z,17.22
2018-07-02T01:46:48.700Z,17.10
2018-07-02T01:49:17.345Z,17.15
2018-07-02T01:51:45.908Z,17.09
2018-07-02T01:54:14.543Z,17.01
2018-07-02T01:56:43.227Z,16.86
2018-07-02T01:59:11.836Z,16.87
2018-07-02T02:01:40.508Z,16.91
2018-07-02T02:04:09.192Z,16.83
2018-07-02T02:06:37.784Z,16.84
2018-07-02T02:09:08.971Z,16.72
2018-07-02T02:11:38.024Z,16.76
2018-07-02T02:14:06.964Z,16.76
2018-07-02T02:16:36.044Z,16.75
2018-07-02T02:19:04.928Z,16.73
2018-07-02T02:21:33.937Z,16.78
2018-07-02T02:24:02.916Z,16.78
2018-07-02T02:26:32.000Z,16.60
2018-07-02T02:29:00.700Z,16.74
2018-07-02T02:31:29.275Z,16.67
2018-07-02T02:33:58.024Z,16.68
2018-07-02T02:36:26.592Z,16.84
2018-07-02T02:38:55.168Z,16.94
2018-07-02T02:41:23.825Z,17.24
2018-07-02T02:43:52.626Z,17.24
2018-07-02T02:46:21.296Z,17.39
2018-07-02T02:48:49.916Z,16.96
2018-07-02T02:51:18.821Z,16.89
2018-07-02T02:53:47.448Z,16.93
2018-07-02T02:56:16.133Z,16.83
2018-07-02T02:58:44.846Z,16.50
2018-07-02T03:01:13.484Z,16.80
2018-07-02T03:03:42.096Z,16.63
2018-07-02T03:06:10.649Z,16.50
2018-07-02T03:08:39.344Z,16.43
2018-07-02T03:11:07.909Z,16.36
2018-07-02T03:13:36.556Z,16.23
2018-07-02T03:16:05.380Z,16.45
2018-07-02T03:18:33.948Z,16.43
2018-07-02T03:21:02.565Z,16.30
2018-07-02T03:23:31.108Z,16.41
2018-07-02T03:25:59.759Z,16.11
2018-07-02T03:28:28.404Z,16.22
2018-07-02T03:30:57.032Z,16.05
2018-07-02T03:33:25.716Z,15.88
2018-07-02T03:35:54.340Z,15.83
2018-07-02T03:38:23.092Z,15.74
2018-07-02T03:40:51.663Z,15.70
2018-07-02T03:43:20.256Z,15.65
2018-07-02T03:45:48.916Z,15.85
2018-07-02T03:48:17.496Z,16.27
2018-07-02T03:50:46.120Z,15.69
2018-07-02T03:53:14.706Z,15.74
2018-07-02T03:55:43.264Z,15.74
2018-07-02T03:58:12.016Z,15.60
2018-07-02T04:00:40.720Z,15.76
2018-07-02T04:03:09.288Z,15.91
2018-07-02T04:05:37.921Z,15.84
2018-07-02T04:08:06.477Z,15.82
2018-07-02T04:10:35.088Z,15.84
2018-07-02T04:13:03.696Z,16.12
2018-07-02T04:15:32.320Z,15.99
2018-07-02T04:18:01.121Z,16.04
2018-07-02T04:20:29.691Z,16.21
2018-07-02T04:22:58.275Z,16.04
2018-07-02T04:25:26.908Z,16.16
2018-07-02T04:27:55.482Z,16.32
2018-07-02T04:30:24.042Z,16.27
2018-07-02T04:32:52.680Z,16.61
2018-07-02T04:35:21.604Z,17.54
2018-07-02T04:37:50.264Z,18.22
2018-07-02T04:40:19.048Z,18.80
2018-07-02T04:42:47.634Z,19.28
2018-07-02T04:45:16.292Z,19.89
2018-07-02T04:47:45.225Z,19.61
2018-07-02T04:50:13.849Z,20.34
2018-07-02T04:52:42.608Z,20.93
2018-07-02T04:55:11.251Z,20.48
2018-07-02T04:57:39.869Z,20.43
2018-07-02T05:00:08.468Z,20.94
2018-07-02T05:02:37.043Z,20.62
2018-07-02T05:05:06.020Z,20.87
2018-07-02T05:07:34.676Z,20.85
2018-07-02T05:10:03.288Z,21.19
2018-07-02T05:12:31.852Z,20.56
2018-07-02T05:15:00.781Z,20.70
2018-07-02T05:17:29.501Z,20.93
2018-07-02T05:19:58.107Z,20.46
2018-07-02T05:22:26.760Z,20.31
2018-07-02T05:24:55.349Z,20.64
2018-07-02T05:27:23.901Z,20.29
2018-07-02T05:29:52.536Z,21.05
2018-07-02T05:32:21.105Z,20.83
2018-07-02T05:34:49.711Z,19.91
2018-07-02T05:37:18.300Z,20.71
2018-07-02T05:39:46.976Z,20.94
2018-07-02T05:42:15.674Z,21.23
2018-07-02T05:44:44.344Z,20.74
2018-07-02T05:47:12.936Z,21.10
2018-07-02T05:49:41.504Z,21.18
2018-07-02T05:52:10.100Z,20.49
2018-07-02T05:54:38.879Z,20.66
2018-07-02T05:57:07.395Z,20.91
2018-07-02T05:59:35.974Z,20.61
2018-07-02T06:02:04.604Z,20.64
2018-07-02T06:04:33.144Z,21.10
2018-07-02T06:07:01.920Z,21.15
2018-07-02T06:09:30.476Z,20.69
2018-07-02T06:11:59.072Z,20.62
2018-07-02T06:14:27.696Z,20.55
2018-07-02T06:16:56.232Z,20.57
2018-07-02T06:19:24.760Z,20.81
2018-07-02T06:21:53.320Z,20.68
2018-07-02T06:24:21.960Z,20.92
2018-07-02T06:26:50.573Z,21.21
2018-07-02T06:29:19.164Z,21.02
2018-07-02T06:31:47.900Z,21.26
2018-07-02T06:34:16.428Z,21.38
2018-07-02T06:36:45.080Z,20.36
2018-07-02T06:39:14.127Z,20.76
2018-07-02T06:41:42.652Z,20.51
2018-07-02T06:44:11.193Z,20.79
2018-07-02T06:46:40.099Z,20.84
2018-07-02T06:49:08.643Z,21.06
2018-07-02T06:51:37.257Z,20.88
2018-07-02T06:54:06.188Z,20.74
2018-07-02T06:56:35.088Z,20.90
2018-07-02T06:59:03.720Z,21.10
2018-07-02T07:01:32.451Z,21.61
2018-07-02T07:04:01.051Z,21.73
2018-07-02T07:06:29.556Z,21.44
2018-07-02T07:08:58.133Z,21.44
2018-07-02T07:11:26.685Z,21.62
2018-07-02T07:13:55.348Z,21.63
2018-07-02T07:16:24.124Z,21.49
2018-07-02T07:18:52.702Z,21.33
2018-07-02T07:21:21.392Z,21.17
2018-07-02T07:23:49.981Z,21.74
2018-07-02T07:26:18.603Z,21.82
2018-07-02T07:28:47.121Z,21.50
2018-07-02T07:31:15.911Z,21.72
2018-07-02T07:33:44.424Z,22.07
2018-07-02T07:36:13.112Z,21.92
2018-07-02T07:38:41.684Z,21.81
2018-07-02T07:41:10.240Z,21.96
2018-07-02T07:43:38.760Z,22.05
2018-07-02T07:46:07.537Z,22.06
2018-07-02T07:48:36.223Z,21.74
2018-07-02T07:51:04.900Z,21.80
2018-07-02T07:53:33.513Z,21.82
2018-07-02T07:56:02.045Z,22.06
2018-07-02T07:58:30.712Z,22.38
2018-07-02T08:00:59.340Z,21.86
2018-07-02T08:03:27.937Z,22.30
2018-07-02T08:05:56.569Z,22.41
2018-07-02T08:08:25.153Z,22.01
2018-07-02T08:10:53.680Z,22.26
2018-07-02T08:13:22.248Z,22.07
2018-07-02T08:15:50.972Z,22.40
2018-07-02T08:18:19.513Z,22.23
2018-07-02T08:20:48.136Z,22.46
2018-07-02T08:23:16.708Z,22.11
2018-07-02T08:25:45.385Z,22.58
2018-07-02T08:28:13.909Z,22.60
2018-07-02T08:30:42.620Z,22.98
2018-07-02T08:33:11.267Z,22.74
2018-07-02T08:35:39.829Z,22.95
2018-07-02T08:38:08.488Z,22.89
2018-07-02T08:40:37.349Z,22.90
2018-07-02T08:43:05.904Z,22.84
2018-07-02T08:45:34.528Z,23.23
2018-07-02T08:48:03.112Z,23.70
2018-07-02T08:50:31.680Z,23.66
2018-07-02T08:53:00.296Z,23.52
2018-07-02T08:55:29.091Z,23.66
2018-07-02T08:57:57.709Z,23.82
2018-07-02T09:00:26.252Z,23.45
2018-07-02T09:02:54.801Z,23.39
2018-07-02T09:05:23.338Z,23.72
2018-07-02T09:07:51.952Z,23.70
2018-07-02T09:10:20.580Z,23.78
2018-07-02T09:12:49.118Z,23.79
2018-07-02T09:15:17.688Z,23.76
2018-07-02T09:17:46.337Z,24.10
2018-07-02T09:20:14.993Z,24.45
2018-07-02T09:22:43.544Z,24.21
2018-07-02T09:25:12.145Z,24.22
2018-07-02T09:27:40.677Z,24.33
2018-07-02T09:30:09.296Z,24.25
2018-07-02T09:32:38.013Z,24.64
2018-07-02T09:35:06.894Z,24.63
2018-07-02T09:37:35.417Z,24.73
2018-07-02T09:40:04.013Z,24.71
2018-07-02T09:42:32.644Z,24.75
2018-07-02T09:45:01.202Z,24.40
2018-07-02T09:47:29.949Z,24.48
2018-07-02T09:49:58.512Z,24.71
2018-07-02T09:52:27.192Z,25.39
2018-07-02T09:54:55.805Z,25.55
2018-07-02T09:57:24.376Z,25.30
2018-07-02T09:59:52.995Z,25.73
2018-07-02T10:02:21.585Z,25.76
2018-07-02T10:04:50.172Z,25.34
2018-07-02T10:07:18.798Z,25.72
2018-07-02T10:09:47.392Z,25.00
2018-07-02T10:12:16.101Z,24.80
2018-07-02T10:14:44.813Z,25.19
2018-07-02T10:17:13.424Z,25.45
2018-07-02T10:19:42.114Z,25.04
2018-07-02T10:22:10.702Z,25.34
2018-07-02T10:24:39.388Z,25.27
2018-07-02T10:27:08.098Z,25.16
2018-07-02T10:29:36.684Z,25.72
2018-07-02T10:32:05.277Z,25.81
2018-07-02T10:34:33.820Z,25.61
2018-07-02T10:37:02.345Z,25.26
2018-07-02T10:39:30.952Z,25.20
2018-07-02T10:41:59.497Z,25.37
2018-07-02T10:44:28.169Z,25.75
2018-07-02T10:46:56.752Z,25.74
2018-07-02T10:49:25.374Z,25.46
2018-07-02T10:51:54.805Z,25.38
2018-07-02T10:54:23.463Z,25.43
2018-07-02T10:56:52.193Z,25.69
2018-07-02T10:59:20.760Z,25.96
2018-07-02T11:01:49.296Z,26.21
2018-07-02T11:04:17.937Z,26.24
2018-07-02T11:06:46.497Z,25.82
2018-07-02T11:09:15.541Z,25.93
2018-07-02T11:11:44.147Z,25.83
2018-07-02T11:14:12.668Z,25.99
2018-07-02T11:16:41.681Z,26.03
2018-07-02T11:19:10.336Z,26.57
2018-07-02T11:21:38.932Z,26.70
2018-07-02T11:24:07.564Z,26.50
2018-07-02T11:26:36.116Z,26.66
2018-07-02T11:29:04.706Z,26.19
2018-07-02T11:31:33.332Z,26.67
2018-07-02T11:34:02.049Z,26.66
2018-07-02T11:36:30.564Z,26.29
2018-07-02T11:38:59.076Z,26.75
2018-07-02T11:41:27.604Z,26.97
2018-07-02T11:43:56.177Z,26.36
2018-07-02T11:46:24.816Z,26.32
2018-07-02T11:48:53.816Z,26.08
2018-07-02T11:51:22.536Z,26.06
2018-07-02T11:53:51.220Z,26.06
2018-07-02T11:56:19.784Z,26.29
2018-07-02T11:58:48.362Z,26.96
2018-07-02T12:01:16.893Z,26.86
2018-07-02T12:03:45.476Z,26.08
2018-07-02T12:06:14.060Z,26.57
2018-07-02T12:08:42.692Z,26.93
2018-07-02T12:11:12.931Z,26.80
2018-07-02T12:13:41.476Z,27.26
2018-07-02T12:16:10.029Z,26.19
2018-07-02T12:18:38.570Z,26.82
2018-07-02T12:21:07.208Z,26.37
2018-07-02T12:23:35.764Z,26.72
2018-07-02T12:26:04.857Z,26.84
2018-07-02T12:28:33.492Z,26.92
2018-07-02T12:31:02.089Z,27.34
2018-07-02T12:33:30.736Z,27.06
2018-07-02T12:35:59.696Z,26.97
2018-07-02T12:38:28.244Z,26.72
2018-07-02T12:40:56.776Z,27.18
2018-07-02T12:43:25.372Z,26.76
2018-07-02T12:45:53.952Z,27.22
2018-07-02T12:48:22.600Z,26.98
2018-07-02T12:50:51.161Z,26.95
2018-07-02T12:53:19.872Z,26.89
2018-07-02T12:55:48.576Z,27.38
2018-07-02T12:58:17.141Z,27.06
2018-07-02T13:00:45.680Z,27.13
2018-07-02T13:03:14.252Z,27.30
2018-07-02T13:05:42.898Z,27.10
2018-07-02T13:08:11.552Z,27.18
2018-07-02T13:10:40.163Z,27.54
2018-07-02T13:13:08.733Z,27.42
2018-07-02T13:15:37.536Z,27.78
2018-07-02T13:18:06.676Z,27.66
2018-07-02T13:20:35.302Z,27.56
2018-07-02T13:23:04.176Z,27.21
2018-07-02T13:25:32.842Z,27.46
2018-07-02T13:28:01.416Z,27.78
2018-07-02T13:30:29.964Z,27.34
2018-07-02T13:32:58.585Z,27.17
2018-07-02T13:35:27.165Z,27.40
2018-07-02T13:37:55.708Z,27.85
2018-07-02T13:40:24.284Z,27.43
2018-07-02T13:42:52.817Z,27.15
2018-07-02T13:45:21.441Z,27.41
2018-07-02T13:47:49.980Z,27.86
2018-07-02T13:50:18.705Z,27.65
2018-07-02T13:52:47.284Z,27.96
2018-07-02T13:55:16.105Z,27.45
2018-07-02T13:57:44.677Z,27.63
2018-07-02T14:00:13.320Z,27.29
2018-07-02T14:02:41.925Z,27.37
2018-07-02T14:05:10.796Z,27.76
2018-07-02T14:07:39.380Z,28.18
2018-07-02T14:10:07.905Z,27.80
2018-07-02T14:12:36.575Z,28.11
2018-07-02T14:15:06.528Z,27.82
2018-07-02T14:17:35.078Z,28.10
2018-07-02T14:20:03.788Z,27.84
2018-07-02T14:22:32.312Z,28.00
2018-07-02T14:25:00.903Z,27.69
2018-07-02T14:27:29.492Z,27.76
2018-07-02T14:29:58.092Z,27.70
2018-07-02T14:32:26.624Z,28.08
2018-07-02T14:34:55.185Z,27.73
2018-07-02T14:37:23.838Z,27.76
2018-07-02T14:39:52.489Z,28.11
2018-07-02T14:42:21.105Z,27.73
2018-07-02T14:44:49.896Z,27.77
2018-07-02T14:47:18.337Z,28.01
2018-07-02T14:49:46.850Z,28.01
2018-07-02T14:52:15.464Z,27.93
2018-07-02T14:54:44.093Z,27.93
2018-07-02T14:57:12.805Z,28.39
2018-07-02T14:59:41.343Z,28.42
2018-07-02T15:02:10.037Z,28.28
2018-07-02T15:04:38.740Z,28.15
2018-07-02T15:07:07.384Z,27.80
2018-07-02T15:09:35.932Z,28.02
2018-07-02T15:12:04.497Z,28.20
2018-07-02T15:14:33.256Z,27.95
2018-07-02T15:17:01.825Z,27.93
2018-07-02T15:19:30.468Z,28.30
2018-07-02T15:21:59.124Z,27.98
2018-07-02T15:24:27.716Z,28.23
2018-07-02T15:26:56.256Z,28.63
2018-07-02T15:29:24.788Z,28.29
2018-07-02T15:31:53.312Z,28.36
2018-07-02T15:34:22.803Z,28.07
2018-07-02T15:36:51.496Z,28.07
2018-07-02T15:39:20.110Z,27.96
2018-07-02T15:41:48.901Z,28.29
2018-07-02T15:44:17.286Z,28.14
2018-07-02T15:46:45.876Z,28.21
2018-07-02T15:49:14.452Z,28.23
2018-07-02T15:51:43.136Z,28.40
2018-07-02T15:54:11.922Z,28.09
2018-07-02T15:56:40.488Z,28.35
2018-07-02T15:59:09.000Z,28.14
2018-07-02T16:01:37.628Z,28.15
2018-07-02T16:04:06.157Z,28.23
2018-07-02T16:06:34.800Z,28.06
2018-07-02T16:09:04.140Z,28.14
2018-07-02T16:11:32.843Z,28.04
2018-07-02T16:14:01.482Z,28.00
2018-07-02T16:16:30.034Z,28.27
2018-07-02T16:18:58.682Z,28.06
2018-07-02T16:21:27.476Z,28.12
2018-07-02T16:23:56.077Z,28.04
2018-07-02T16:26:24.728Z,27.88
2018-07-02T16:28:53.417Z,28.09
2018-07-02T16:31:22.048Z,28.01
2018-07-02T16:33:51.101Z,28.02
2018-07-02T16:36:19.664Z,28.17
2018-07-02T16:38:48.272Z,27.98
2018-07-02T16:41:17.200Z,28.29
2018-07-02T16:43:45.860Z,28.07
2018-07-02T16:46:14.464Z,27.79
2018-07-02T16:48:43.048Z,27.86
2018-07-02T16:51:11.788Z,27.91
2018-07-02T16:53:40.332Z,28.00
2018-07-02T16:56:08.976Z,28.11
2018-07-02T16:58:37.632Z,28.19
2018-07-02T17:01:07.263Z,28.05
2018-07-02T17:03:35.935Z,27.84
2018-07-02T17:06:04.819Z,27.83
2018-07-02T17:08:33.540Z,28.17
2018-07-02T17:11:02.196Z,27.80
2018-07-02T17:13:30.740Z,27.79
2018-07-02T17:15:59.384Z,27.89
2018-07-02T17:18:28.008Z,27.63
2018-07-02T17:20:56.585Z,27.80
2018-07-02T17:23:25.149Z,27.68
2018-07-02T17:25:53.859Z,27.55
2018-07-02T17:28:22.456Z,27.50
2018-07-02T17:30:51.056Z,27.58
2018-07-02T17:33:19.631Z,27.48
2018-07-02T17:35:48.232Z,27.53
2018-07-02T17:38:16.953Z,27.71
2018-07-02T17:40:45.584Z,27.61
2018-07-02T17:43:14.320Z,27.61
2018-07-02T17:45:43.068Z,27.66
2018-07-02T17:48:11.584Z,27.74
2018-07-02T17:50:40.149Z,27.30
2018-07-02T17:53:08.828Z,27.44
2018-07-02T17:55:37.450Z,27.08
2018-07-02T17:58:06.540Z,27.18
2018-07-02T18:00:35.268Z,27.17
2018-07-02T18:03:03.883Z,27.21
2018-07-02T18:05:32.412Z,27.11
2018-07-02T18:08:01.019Z,27.42
2018-07-02T18:10:29.588Z,27.32
2018-07-02T18:12:58.213Z,27.23
2018-07-02T18:15:26.756Z,27.00
2018-07-02T18:17:55.400Z,26.77
2018-07-02T18:20:24.005Z,26.63
2018-07-02T18:22:52.696Z,26.71
2018-07-02T18:25:21.280Z,26.76
2018-07-02T18:27:49.989Z,26.65
2018-07-02T18:30:18.533Z,26.71
2018-07-02T18:32:47.205Z,26.80
2018-07-02T18:35:15.792Z,26.57
2018-07-02T18:37:44.378Z,26.54
2018-07-02T18:40:12.972Z,26.47
2018-07-02T18:42:41.516Z,26.06
2018-07-02T18:45:10.204Z,25.79
2018-07-02T18:47:38.756Z,25.36
2018-07-02T18:50:07.408Z,24.98
2018-07-02T18:52:36.054Z,25.07
2018-07-02T18:55:04.762Z,24.65
2018-07-02T18:57:33.360Z,24.40
2018-07-02T19:00:02.051Z,24.01
2018-07-02T19:02:30.608Z,24.28
2018-07-02T19:04:59.232Z,24.18
2018-07-02T19:07:27.785Z,23.81
2018-07-02T19:09:56.356Z,23.64
2018-07-02T19:12:24.932Z,23.56
2018-07-02T19:14:53.518Z,23.39
2018-07-02T19:17:22.236Z,23.26
2018-07-02T19:19:50.867Z,23.28
2018-07-02T19:22:19.640Z,23.09
2018-07-02T19:24:48.193Z,23.10
2018-07-02T19:27:16.848Z,22.71
2018-07-02T19:29:45.465Z,22.83
2018-07-02T19:32:13.972Z,22.91
2018-07-02T19:34:42.596Z,22.73
2018-07-02T19:37:11.123Z,22.17
2018-07-02T19:39:39.676Z,22.24
2018-07-02T19:42:08.228Z,22.17
2018-07-02T19:44:36.833Z,22.20
2018-07-02T19:47:05.638Z,21.89
2018-07-02T19:49:34.304Z,21.67
2018-07-02T19:52:02.958Z,21.84
2018-07-02T19:54:31.549Z,21.87
2018-07-02T19:57:00.105Z,21.60
2018-07-02T19:59:28.652Z,21.65
2018-07-02T20:01:57.269Z,21.72
2018-07-02T20:04:25.836Z,21.94
2018-07-02T20:06:54.544Z,21.86
2018-07-02T20:09:23.538Z,21.71
2018-07-02T20:11:52.147Z,21.29
2018-07-02T20:14:20.733Z,21.22
2018-07-02T20:16:49.352Z,20.83
2018-07-02T20:19:18.230Z,21.15
2018-07-02T20:21:46.784Z,21.01
2018-07-02T20:24:15.356Z,21.01
2018-07-02T20:26:43.933Z,20.93
2018-07-02T20:29:12.797Z,20.92
2018-07-02T20:31:41.460Z,20.96
2018-07-02T20:34:10.094Z,21.11
2018-07-02T20:36:38.796Z,21.14
2018-07-02T20:39:10.292Z,21.12
2018-07-02T20:41:38.923Z,21.07
2018-07-02T20:44:07.915Z,21.21
2018-07-02T20:46:36.572Z,21.36
2018-07-02T20:49:05.974Z,21.48
2018-07-02T20:51:34.604Z,21.54
2018-07-02T20:54:03.254Z,21.45
2018-07-02T20:56:31.847Z,21.47
2018-07-02T20:59:00.440Z,21.44
2018-07-02T21:01:29.013Z,21.43
2018-07-02T21:03:57.632Z,21.32
2018-07-02T21:06:26.176Z,21.52
2018-07-02T21:08:55.248Z,21.53
2018-07-02T21:11:23.916Z,21.46
2018-07-02T21:13:52.777Z,21.55
2018-07-02T21:16:21.420Z,21.42
2018-07-02T21:18:50.012Z,21.67
2018-07-02T21:21:18.656Z,21.38
2018-07-02T21:23:47.192Z,21.38
2018-07-02T21:26:16.017Z,21.45
2018-07-02T21:28:44.581Z,21.51
2018-07-02T21:31:13.184Z,21.45
2018-07-02T21:33:41.788Z,21.33
2018-07-02T21:36:10.383Z,21.17
2018-07-02T21:38:39.008Z,21.23
2018-07-02T21:41:07.644Z,21.31
2018-07-02T21:43:36.324Z,21.29
2018-07-02T21:46:04.875Z,21.28
2018-07-02T21:48:33.497Z,21.26
2018-07-02T21:51:02.060Z,21.19
2018-07-02T21:53:30.640Z,21.22
2018-07-02T21:55:59.180Z,21.22
2018-07-02T21:58:27.724Z,21.16
2018-07-02T22:00:56.285Z,21.10
2018-07-02T22:03:24.816Z,21.17
2018-07-02T22:05:53.444Z,20.99
2018-07-02T22:08:22.035Z,20.99
2018-07-02T22:10:50.656Z,20.85
2018-07-02T22:13:19.248Z,20.79
2018-07-02T22:15:47.889Z,20.84
2018-07-02T22:18:16.428Z,20.77
2018-07-02T22:20:44.979Z,20.88
2018-07-02T22:23:13.503Z,20.86
2018-07-02T22:25:42.102Z,20.67
2018-07-02T22:28:10.704Z,20.72
2018-07-02T22:30:39.288Z,20.59
2018-07-02T22:33:07.868Z,20.58
2018-07-02T22:35:36.819Z,20.72
2018-07-02T22:38:05.477Z,20.74
2018-07-02T22:40:34.101Z,20.79
2018-07-02T22:43:02.720Z,20.78
2018-07-02T22:45:31.283Z,20.72
2018-07-02T22:47:59.911Z,20.76
2018-07-02T22:50:28.489Z,20.65
2018-07-02T22:52:57.300Z,20.62
2018-07-02T22:55:25.824Z,20.71
2018-07-02T22:57:54.570Z,20.88
2018-07-02T23:00:23.261Z,20.82
2018-07-02T23:02:51.916Z,20.88
2018-07-02T23:05:20.573Z,20.78
2018-07-02T23:07:49.108Z,21.04
2018-07-02T23:10:17.821Z,21.11
2018-07-02T23:12:46.434Z,20.76
2018-07-02T23:15:15.033Z,20.58
2018-07-02T23:17:43.717Z,20.50
2018-07-02T23:20:12.336Z,19.85
2018-07-02T23:22:54.497Z,19.69
2018-07-02T23:25:23.073Z,19.55
2018-07-02T23:27:51.755Z,19.16
2018-07-02T23:30:20.810Z,19.35
2018-07-02T23:32:50.104Z,18.98
2018-07-02T23:35:19.269Z,19.04
2018-07-02T23:37:49.399Z,18.71
2018-07-02T23:40:18.076Z,18.52
2018-07-02T23:42:46.621Z,18.54
2018-07-02T23:45:15.215Z,18.31
2018-07-02T23:47:43.791Z,18.26
2018-07-02T23:50:12.520Z,18.12
2018-07-02T23:52:41.716Z,18.12
2018-07-02T23:55:10.446Z,17.86
2018-07-02T23:57:39.470Z,17.90
